sensor_id;sensor_type;location;lat;lon;timestamp;temperature;humidity
75022;SHT31;63583;49.976;20.182;2022-11-23T00:01:20;-1.68;97.68
75022;SHT31;63583;49.976;20.182;2022-11-23T00:03:50;-1.68;97.49
75022;SHT31;63583;49.976;20.182;2022-11-23T00:06:16;-1.66;97.33
75022;SHT31;63583;49.976;20.182;2022-11-23T00:08:43;-1.60;97.65
75022;SHT31;63583;49.976;20.182;2022-11-23T00:11:09;-1.61;97.39
75022;SHT31;63583;49.976;20.182;2022-11-23T00:13:35;-1.53;97.45
75022;SHT31;63583;49.976;20.182;2022-11-23T00:16:05;-1.50;96.96
75022;SHT31;63583;49.976;20.182;2022-11-23T00:18:31;-1.51;96.94
75022;SHT31;63583;49.976;20.182;2022-11-23T00:20:57;-1.58;96.67
75022;SHT31;63583;49.976;20.182;2022-11-23T00:23:22;-1.56;96.73
75022;SHT31;63583;49.976;20.182;2022-11-23T00:25:48;-1.54;96.79
75022;SHT31;63583;49.976;20.182;2022-11-23T00:28:14;-1.46;96.65
75022;SHT31;63583;49.976;20.182;2022-11-23T00:30:40;-1.56;96.53
75022;SHT31;63583;49.976;20.182;2022-11-23T00:33:05;-1.57;96.55
75022;SHT31;63583;49.976;20.182;2022-11-23T00:35:31;-1.58;96.58
75022;SHT31;63583;49.976;20.182;2022-11-23T00:37:57;-1.64;97.02
75022;SHT31;63583;49.976;20.182;2022-11-23T00:40:23;-1.57;97.05
75022;SHT31;63583;49.976;20.182;2022-11-23T00:42:48;-1.66;96.65
75022;SHT31;63583;49.976;20.182;2022-11-23T00:45:14;-1.72;97.13
75022;SHT31;63583;49.976;20.182;2022-11-23T00:47:40;-1.61;97.23
75022;SHT31;63583;49.976;20.182;2022-11-23T00:50:06;-1.60;97.20
75022;SHT31;63583;49.976;20.182;2022-11-23T00:52:31;-1.54;97.13
75022;SHT31;63583;49.976;20.182;2022-11-23T00:54:57;-1.57;97.02
75022;SHT31;63583;49.976;20.182;2022-11-23T00:57:23;-1.46;97.01
75022;SHT31;63583;49.976;20.182;2022-11-23T00:59:49;-1.53;96.89
75022;SHT31;63583;49.976;20.182;2022-11-23T01:02:14;-1.53;96.99
75022;SHT31;63583;49.976;20.182;2022-11-23T01:04:40;-1.47;96.94
75022;SHT31;63583;49.976;20.182;2022-11-23T01:07:06;-1.47;96.74
75022;SHT31;63583;49.976;20.182;2022-11-23T01:09:32;-1.51;96.71
75022;SHT31;63583;49.976;20.182;2022-11-23T01:11:57;-1.67;97.31
75022;SHT31;63583;49.976;20.182;2022-11-23T01:14:23;-1.71;97.53
75022;SHT31;63583;49.976;20.182;2022-11-23T01:16:49;-1.57;97.84
75022;SHT31;63583;49.976;20.182;2022-11-23T01:19:17;-1.63;97.71
75022;SHT31;63583;49.976;20.182;2022-11-23T01:21:43;-1.64;97.72
75022;SHT31;63583;49.976;20.182;2022-11-23T01:24:22;-1.70;97.73
75022;SHT31;63583;49.976;20.182;2022-11-23T01:26:51;-1.67;98.11
75022;SHT31;63583;49.976;20.182;2022-11-23T01:29:17;-1.57;98.19
75022;SHT31;63583;49.976;20.182;2022-11-23T01:31:43;-1.60;97.87
75022;SHT31;63583;49.976;20.182;2022-11-23T01:34:10;-1.60;97.75
75022;SHT31;63583;49.976;20.182;2022-11-23T01:36:36;-1.61;97.24
75022;SHT31;63583;49.976;20.182;2022-11-23T01:39:03;-1.66;97.09
75022;SHT31;63583;49.976;20.182;2022-11-23T01:41:39;-1.68;97.44
75022;SHT31;63583;49.976;20.182;2022-11-23T01:44:31;-1.63;97.56
75022;SHT31;63583;49.976;20.182;2022-11-23T01:47:07;-1.58;97.63
75022;SHT31;63583;49.976;20.182;2022-11-23T01:49:41;-1.60;97.54
75022;SHT31;63583;49.976;20.182;2022-11-23T01:52:18;-1.61;97.08
75022;SHT31;63583;49.976;20.182;2022-11-23T01:54:49;-1.60;97.10
75022;SHT31;63583;49.976;20.182;2022-11-23T01:57:19;-1.57;96.88
75022;SHT31;63583;49.976;20.182;2022-11-23T01:59:47;-1.68;96.97
75022;SHT31;63583;49.976;20.182;2022-11-23T02:02:14;-1.64;97.08
75022;SHT31;63583;49.976;20.182;2022-11-23T02:04:42;-1.64;96.87
75022;SHT31;63583;49.976;20.182;2022-11-23T02:07:09;-1.60;97.29
75022;SHT31;63583;49.976;20.182;2022-11-23T02:09:36;-1.66;97.18
75022;SHT31;63583;49.976;20.182;2022-11-23T02:12:02;-1.86;97.65
75022;SHT31;63583;49.976;20.182;2022-11-23T02:14:28;-1.85;98.14
75022;SHT31;63583;49.976;20.182;2022-11-23T02:16:57;-1.91;98.50
75022;SHT31;63583;49.976;20.182;2022-11-23T02:19:46;-1.88;98.65
75022;SHT31;63583;49.976;20.182;2022-11-23T02:22:27;-1.96;98.79
75022;SHT31;63583;49.976;20.182;2022-11-23T02:24:54;-2.01;98.84
75022;SHT31;63583;49.976;20.182;2022-11-23T02:27:20;-2.01;99.09
75022;SHT31;63583;49.976;20.182;2022-11-23T02:29:47;-1.96;99.13
75022;SHT31;63583;49.976;20.182;2022-11-23T02:32:18;-1.99;99.14
75022;SHT31;63583;49.976;20.182;2022-11-23T02:34:48;-1.96;99.16
75022;SHT31;63583;49.976;20.182;2022-11-23T02:37:14;-1.98;99.21
75022;SHT31;63583;49.976;20.182;2022-11-23T02:39:43;-1.98;99.20
75022;SHT31;63583;49.976;20.182;2022-11-23T02:42:10;-2.02;99.37
75022;SHT31;63583;49.976;20.182;2022-11-23T02:47:32;-1.92;99.56
75022;SHT31;63583;49.976;20.182;2022-11-23T02:49:58;-1.91;99.49
75022;SHT31;63583;49.976;20.182;2022-11-23T02:52:24;-1.92;99.39
75022;SHT31;63583;49.976;20.182;2022-11-23T02:54:50;-1.96;99.46
75022;SHT31;63583;49.976;20.182;2022-11-23T02:57:15;-1.89;99.55
75022;SHT31;63583;49.976;20.182;2022-11-23T02:59:42;-1.95;99.47
75022;SHT31;63583;49.976;20.182;2022-11-23T03:02:07;-1.95;99.53
75022;SHT31;63583;49.976;20.182;2022-11-23T03:04:33;-1.98;99.53
75022;SHT31;63583;49.976;20.182;2022-11-23T03:06:59;-1.95;99.64
75022;SHT31;63583;49.976;20.182;2022-11-23T03:09:25;-1.96;99.60
75022;SHT31;63583;49.976;20.182;2022-11-23T03:11:52;-1.95;99.64
75022;SHT31;63583;49.976;20.182;2022-11-23T03:14:18;-1.94;99.70
75022;SHT31;63583;49.976;20.182;2022-11-23T03:16:43;-1.94;99.77
75022;SHT31;63583;49.976;20.182;2022-11-23T03:19:09;-1.88;99.80
75022;SHT31;63583;49.976;20.182;2022-11-23T03:21:35;-1.92;99.84
75022;SHT31;63583;49.976;20.182;2022-11-23T03:24:01;-1.85;99.91
75022;SHT31;63583;49.976;20.182;2022-11-23T03:26:27;-1.85;99.84
75022;SHT31;63583;49.976;20.182;2022-11-23T03:28:53;-1.91;99.71
75022;SHT31;63583;49.976;20.182;2022-11-23T03:31:18;-1.94;99.74
75022;SHT31;63583;49.976;20.182;2022-11-23T03:33:44;-1.99;99.79
75022;SHT31;63583;49.976;20.182;2022-11-23T03:36:10;-1.95;99.99
75022;SHT31;63583;49.976;20.182;2022-11-23T03:38:36;-1.88;99.99
75022;SHT31;63583;49.976;20.182;2022-11-23T03:41:01;-1.91;99.99
75022;SHT31;63583;49.976;20.182;2022-11-23T03:43:27;-1.89;99.99
75022;SHT31;63583;49.976;20.182;2022-11-23T03:45:53;-1.84;99.99
75022;SHT31;63583;49.976;20.182;2022-11-23T03:48:18;-1.92;99.99
75022;SHT31;63583;49.976;20.182;2022-11-23T03:50:44;-1.89;99.99
75022;SHT31;63583;49.976;20.182;2022-11-23T03:53:10;-1.85;99.99
75022;SHT31;63583;49.976;20.182;2022-11-23T03:55:36;-1.82;99.99
75022;SHT31;63583;49.976;20.182;2022-11-23T03:58:03;-1.81;99.99
75022;SHT31;63583;49.976;20.182;2022-11-23T04:00:29;-1.77;99.99
75022;SHT31;63583;49.976;20.182;2022-11-23T04:02:55;-1.77;99.99
75022;SHT31;63583;49.976;20.182;2022-11-23T04:05:22;-1.74;99.99
75022;SHT31;63583;49.976;20.182;2022-11-23T04:07:49;-1.70;99.99
75022;SHT31;63583;49.976;20.182;2022-11-23T04:10:16;-1.68;99.99
75022;SHT31;63583;49.976;20.182;2022-11-23T04:12:42;-1.70;99.99
75022;SHT31;63583;49.976;20.182;2022-11-23T04:15:08;-1.71;99.99
75022;SHT31;63583;49.976;20.182;2022-11-23T04:17:34;-1.67;99.99
75022;SHT31;63583;49.976;20.182;2022-11-23T04:20:00;-1.64;99.99
75022;SHT31;63583;49.976;20.182;2022-11-23T04:22:26;-1.72;99.99
75022;SHT31;63583;49.976;20.182;2022-11-23T04:24:52;-1.68;99.99
75022;SHT31;63583;49.976;20.182;2022-11-23T04:27:17;-1.68;99.99
75022;SHT31;63583;49.976;20.182;2022-11-23T04:29:43;-1.63;99.99
75022;SHT31;63583;49.976;20.182;2022-11-23T04:32:09;-1.63;99.99
75022;SHT31;63583;49.976;20.182;2022-11-23T04:34:35;-1.68;99.99
75022;SHT31;63583;49.976;20.182;2022-11-23T04:37:01;-1.70;99.99
75022;SHT31;63583;49.976;20.182;2022-11-23T04:39:27;-1.70;99.99
75022;SHT31;63583;49.976;20.182;2022-11-23T04:41:53;-1.61;99.99
75022;SHT31;63583;49.976;20.182;2022-11-23T04:44:18;-1.67;99.99
75022;SHT31;63583;49.976;20.182;2022-11-23T04:46:46;-1.74;99.99
75022;SHT31;63583;49.976;20.182;2022-11-23T04:49:12;-1.74;99.99
75022;SHT31;63583;49.976;20.182;2022-11-23T04:51:37;-1.75;99.99
75022;SHT31;63583;49.976;20.182;2022-11-23T04:54:03;-1.78;99.99
75022;SHT31;63583;49.976;20.182;2022-11-23T04:56:30;-1.77;99.99
75022;SHT31;63583;49.976;20.182;2022-11-23T04:58:55;-1.72;99.99
75022;SHT31;63583;49.976;20.182;2022-11-23T05:01:21;-1.68;99.99
75022;SHT31;63583;49.976;20.182;2022-11-23T05:03:47;-1.66;99.99
75022;SHT31;63583;49.976;20.182;2022-11-23T05:06:13;-1.68;99.99
75022;SHT31;63583;49.976;20.182;2022-11-23T05:08:38;-1.72;99.99
75022;SHT31;63583;49.976;20.182;2022-11-23T05:11:04;-1.74;99.99
75022;SHT31;63583;49.976;20.182;2022-11-23T05:13:30;-1.77;99.99
75022;SHT31;63583;49.976;20.182;2022-11-23T05:15:56;-1.67;99.99
75022;SHT31;63583;49.976;20.182;2022-11-23T05:18:21;-1.67;99.99
75022;SHT31;63583;49.976;20.182;2022-11-23T05:20:47;-1.63;99.99
75022;SHT31;63583;49.976;20.182;2022-11-23T05:23:13;-1.64;99.99
75022;SHT31;63583;49.976;20.182;2022-11-23T05:25:39;-1.67;99.99
75022;SHT31;63583;49.976;20.182;2022-11-23T05:28:05;-1.67;99.99
75022;SHT31;63583;49.976;20.182;2022-11-23T05:30:31;-1.66;99.99
75022;SHT31;63583;49.976;20.182;2022-11-23T05:33:00;-1.71;99.99
75022;SHT31;63583;49.976;20.182;2022-11-23T05:39:07;-1.77;99.99
75022;SHT31;63583;49.976;20.182;2022-11-23T05:41:33;-1.79;99.99
75022;SHT31;63583;49.976;20.182;2022-11-23T05:43:59;-1.84;99.99
75022;SHT31;63583;49.976;20.182;2022-11-23T05:46:25;-1.72;99.99
75022;SHT31;63583;49.976;20.182;2022-11-23T05:48:50;-1.78;99.99
75022;SHT31;63583;49.976;20.182;2022-11-23T05:51:16;-1.74;99.99
75022;SHT31;63583;49.976;20.182;2022-11-23T05:53:42;-1.70;99.99
75022;SHT31;63583;49.976;20.182;2022-11-23T05:56:08;-1.72;99.99
75022;SHT31;63583;49.976;20.182;2022-11-23T05:58:33;-1.71;99.99
75022;SHT31;63583;49.976;20.182;2022-11-23T06:01:00;-1.66;99.99
75022;SHT31;63583;49.976;20.182;2022-11-23T06:03:25;-1.51;99.99
75022;SHT31;63583;49.976;20.182;2022-11-23T06:05:51;-1.44;99.99
75022;SHT31;63583;49.976;20.182;2022-11-23T06:08:18;-1.54;99.99
75022;SHT31;63583;49.976;20.182;2022-11-23T06:10:44;-1.48;99.99
75022;SHT31;63583;49.976;20.182;2022-11-23T06:13:10;-1.50;99.99
75022;SHT31;63583;49.976;20.182;2022-11-23T06:15:35;-1.51;99.99
75022;SHT31;63583;49.976;20.182;2022-11-23T06:18:01;-1.50;99.99
75022;SHT31;63583;49.976;20.182;2022-11-23T06:20:28;-1.57;99.99
75022;SHT31;63583;49.976;20.182;2022-11-23T06:22:54;-1.42;99.99
75022;SHT31;63583;49.976;20.182;2022-11-23T06:25:20;-1.39;99.99
75022;SHT31;63583;49.976;20.182;2022-11-23T06:27:56;-1.33;99.99
75022;SHT31;63583;49.976;20.182;2022-11-23T06:30:24;-1.42;99.99
75022;SHT31;63583;49.976;20.182;2022-11-23T06:32:50;-1.40;99.99
75022;SHT31;63583;49.976;20.182;2022-11-23T06:35:16;-1.40;99.99
75022;SHT31;63583;49.976;20.182;2022-11-23T06:37:41;-1.37;99.99
75022;SHT31;63583;49.976;20.182;2022-11-23T06:40:09;-1.30;99.99
75022;SHT31;63583;49.976;20.182;2022-11-23T06:42:34;-1.42;99.99
75022;SHT31;63583;49.976;20.182;2022-11-23T06:45:00;-1.35;99.99
75022;SHT31;63583;49.976;20.182;2022-11-23T06:47:29;-1.36;99.99
75022;SHT31;63583;49.976;20.182;2022-11-23T06:49:55;-1.39;99.99
75022;SHT31;63583;49.976;20.182;2022-11-23T06:52:20;-1.43;99.99
75022;SHT31;63583;49.976;20.182;2022-11-23T06:54:46;-1.42;99.99
75022;SHT31;63583;49.976;20.182;2022-11-23T06:57:12;-1.39;99.99
75022;SHT31;63583;49.976;20.182;2022-11-23T06:59:38;-1.35;99.99
75022;SHT31;63583;49.976;20.182;2022-11-23T07:02:04;-1.40;99.99
75022;SHT31;63583;49.976;20.182;2022-11-23T07:04:30;-1.40;99.99
75022;SHT31;63583;49.976;20.182;2022-11-23T07:06:56;-1.37;99.99
75022;SHT31;63583;49.976;20.182;2022-11-23T07:09:22;-1.37;99.99
75022;SHT31;63583;49.976;20.182;2022-11-23T07:11:48;-1.33;99.99
75022;SHT31;63583;49.976;20.182;2022-11-23T07:14:14;-1.27;99.99
75022;SHT31;63583;49.976;20.182;2022-11-23T07:16:39;-1.32;99.99
75022;SHT31;63583;49.976;20.182;2022-11-23T07:19:05;-1.30;99.99
75022;SHT31;63583;49.976;20.182;2022-11-23T07:21:31;-1.27;99.99
75022;SHT31;63583;49.976;20.182;2022-11-23T07:23:57;-1.32;99.99
75022;SHT31;63583;49.976;20.182;2022-11-23T07:26:22;-1.26;99.99
75022;SHT31;63583;49.976;20.182;2022-11-23T07:28:48;-1.25;99.99
75022;SHT31;63583;49.976;20.182;2022-11-23T07:31:14;-1.20;99.99
75022;SHT31;63583;49.976;20.182;2022-11-23T07:33:46;-1.20;99.99
75022;SHT31;63583;49.976;20.182;2022-11-23T07:36:12;-1.19;99.99
75022;SHT31;63583;49.976;20.182;2022-11-23T07:38:37;-1.15;99.99
75022;SHT31;63583;49.976;20.182;2022-11-23T07:41:04;-1.13;99.99
75022;SHT31;63583;49.976;20.182;2022-11-23T07:43:29;-1.10;99.99
75022;SHT31;63583;49.976;20.182;2022-11-23T07:45:55;-1.12;99.99
75022;SHT31;63583;49.976;20.182;2022-11-23T07:48:22;-1.16;99.99
75022;SHT31;63583;49.976;20.182;2022-11-23T07:50:51;-1.19;99.99
75022;SHT31;63583;49.976;20.182;2022-11-23T07:53:17;-1.20;99.99
75022;SHT31;63583;49.976;20.182;2022-11-23T07:55:43;-1.09;99.99
75022;SHT31;63583;49.976;20.182;2022-11-23T07:58:09;-1.15;99.99
75022;SHT31;63583;49.976;20.182;2022-11-23T08:00:36;-1.13;99.99
75022;SHT31;63583;49.976;20.182;2022-11-23T08:03:02;-1.13;99.99
75022;SHT31;63583;49.976;20.182;2022-11-23T08:05:31;-1.15;99.99
75022;SHT31;63583;49.976;20.182;2022-11-23T08:07:58;-1.13;99.99
75022;SHT31;63583;49.976;20.182;2022-11-23T08:10:29;-1.08;99.99
75022;SHT31;63583;49.976;20.182;2022-11-23T08:12:59;-1.03;99.99
75022;SHT31;63583;49.976;20.182;2022-11-23T08:15:26;-1.08;99.99
75022;SHT31;63583;49.976;20.182;2022-11-23T08:17:59;-1.03;99.99
75022;SHT31;63583;49.976;20.182;2022-11-23T08:20:26;-0.99;99.99
75022;SHT31;63583;49.976;20.182;2022-11-23T08:22:52;-0.89;99.99
75022;SHT31;63583;49.976;20.182;2022-11-23T08:25:24;-0.87;99.99
75022;SHT31;63583;49.976;20.182;2022-11-23T08:27:58;-0.91;99.99
75022;SHT31;63583;49.976;20.182;2022-11-23T08:30:25;-0.82;99.99
75022;SHT31;63583;49.976;20.182;2022-11-23T08:32:51;-0.78;99.99
75022;SHT31;63583;49.976;20.182;2022-11-23T08:35:17;-0.81;99.99
75022;SHT31;63583;49.976;20.182;2022-11-23T08:37:43;-0.75;99.99
75022;SHT31;63583;49.976;20.182;2022-11-23T08:40:09;-0.74;99.99
75022;SHT31;63583;49.976;20.182;2022-11-23T08:42:35;-0.78;99.99
75022;SHT31;63583;49.976;20.182;2022-11-23T08:45:01;-0.70;99.99
75022;SHT31;63583;49.976;20.182;2022-11-23T08:47:30;-0.68;99.99
75022;SHT31;63583;49.976;20.182;2022-11-23T08:49:56;-0.68;99.99
75022;SHT31;63583;49.976;20.182;2022-11-23T08:52:22;-0.68;99.99
75022;SHT31;63583;49.976;20.182;2022-11-23T08:54:48;-0.62;99.99
75022;SHT31;63583;49.976;20.182;2022-11-23T08:57:14;-0.64;99.99
75022;SHT31;63583;49.976;20.182;2022-11-23T08:59:39;-0.67;99.99
75022;SHT31;63583;49.976;20.182;2022-11-23T09:02:05;-0.61;99.99
75022;SHT31;63583;49.976;20.182;2022-11-23T09:04:31;-0.62;99.99
75022;SHT31;63583;49.976;20.182;2022-11-23T09:06:57;-0.60;99.99
75022;SHT31;63583;49.976;20.182;2022-11-23T09:09:23;-0.56;99.90
75022;SHT31;63583;49.976;20.182;2022-11-23T09:11:49;-0.57;99.89
75022;SHT31;63583;49.976;20.182;2022-11-23T09:14:14;-0.51;99.72
75022;SHT31;63583;49.976;20.182;2022-11-23T09:16:40;-0.47;99.77
75022;SHT31;63583;49.976;20.182;2022-11-23T09:19:06;-0.45;99.79
75022;SHT31;63583;49.976;20.182;2022-11-23T09:21:32;-0.49;99.65
75022;SHT31;63583;49.976;20.182;2022-11-23T09:24:00;-0.41;99.72
75022;SHT31;63583;49.976;20.182;2022-11-23T09:26:26;-0.44;99.62
75022;SHT31;63583;49.976;20.182;2022-11-23T09:28:52;-0.44;99.52
75022;SHT31;63583;49.976;20.182;2022-11-23T09:31:18;-0.38;99.58
75022;SHT31;63583;49.976;20.182;2022-11-23T09:33:44;-0.40;99.34
75022;SHT31;63583;49.976;20.182;2022-11-23T09:36:10;-0.41;99.18
75022;SHT31;63583;49.976;20.182;2022-11-23T09:38:36;-0.38;99.21
75022;SHT31;63583;49.976;20.182;2022-11-23T09:41:35;-0.40;99.45
75022;SHT31;63583;49.976;20.182;2022-11-23T09:44:16;-0.36;99.64
75022;SHT31;63583;49.976;20.182;2022-11-23T09:47:00;-0.37;99.74
75022;SHT31;63583;49.976;20.182;2022-11-23T09:49:33;-0.40;99.68
75022;SHT31;63583;49.976;20.182;2022-11-23T09:52:18;-0.33;99.82
75022;SHT31;63583;49.976;20.182;2022-11-23T09:54:48;-0.36;99.75
75022;SHT31;63583;49.976;20.182;2022-11-23T09:57:18;-0.31;99.90
75022;SHT31;63583;49.976;20.182;2022-11-23T09:59:49;-0.26;99.58
75022;SHT31;63583;49.976;20.182;2022-11-23T10:02:22;-0.30;99.64
75022;SHT31;63583;49.976;20.182;2022-11-23T10:04:50;-0.30;99.42
75022;SHT31;63583;49.976;20.182;2022-11-23T10:13:02;-0.23;99.55
75022;SHT31;63583;49.976;20.182;2022-11-23T10:15:50;-0.31;99.49
75022;SHT31;63583;49.976;20.182;2022-11-23T10:21:29;-0.33;99.32
75022;SHT31;63583;49.976;20.182;2022-11-23T10:24:12;-0.29;99.35
75022;SHT31;63583;49.976;20.182;2022-11-23T10:26:42;-0.29;99.05
75022;SHT31;63583;49.976;20.182;2022-11-23T10:29:14;-0.24;98.55
75022;SHT31;63583;49.976;20.182;2022-11-23T10:31:44;-0.26;98.37
75022;SHT31;63583;49.976;20.182;2022-11-23T10:35:03;-0.23;98.37
75022;SHT31;63583;49.976;20.182;2022-11-23T10:37:01;-0.09;98.51
75022;SHT31;63583;49.976;20.182;2022-11-23T10:39:28;-0.17;98.19
75022;SHT31;63583;49.976;20.182;2022-11-23T10:41:58;-0.23;97.82
75022;SHT31;63583;49.976;20.182;2022-11-23T10:44:36;-0.22;97.79
75022;SHT31;63583;49.976;20.182;2022-11-23T10:47:03;-0.20;97.82
75022;SHT31;63583;49.976;20.182;2022-11-23T10:49:32;-0.16;97.76
75022;SHT31;63583;49.976;20.182;2022-11-23T10:52:08;-0.10;97.60
75022;SHT31;63583;49.976;20.182;2022-11-23T10:54:52;-0.03;97.79
75022;SHT31;63583;49.976;20.182;2022-11-23T10:57:30;-0.02;97.66
75022;SHT31;63583;49.976;20.182;2022-11-23T11:02:44;-0.09;97.84
75022;SHT31;63583;49.976;20.182;2022-11-23T11:05:26;-0.14;98.08
75022;SHT31;63583;49.976;20.182;2022-11-23T11:07:57;-0.16;98.06
75022;SHT31;63583;49.976;20.182;2022-11-23T11:10:41;-0.19;98.17
75022;SHT31;63583;49.976;20.182;2022-11-23T11:13:25;-0.10;98.22
75022;SHT31;63583;49.976;20.182;2022-11-23T11:18:29;-0.02;97.93
75022;SHT31;63583;49.976;20.182;2022-11-23T11:20:59;-0.06;97.68
75022;SHT31;63583;49.976;20.182;2022-11-23T11:23:25;-0.09;97.18
75022;SHT31;63583;49.976;20.182;2022-11-23T11:26:13;-0.05;97.39
75022;SHT31;63583;49.976;20.182;2022-11-23T11:28:47;-0.07;97.44
75022;SHT31;63583;49.976;20.182;2022-11-23T11:34:24;-0.10;97.30
75022;SHT31;63583;49.976;20.182;2022-11-23T11:37:07;-0.03;97.02
75022;SHT31;63583;49.976;20.182;2022-11-23T11:42:06;-0.03;97.38
75022;SHT31;63583;49.976;20.182;2022-11-23T11:44:36;-0.09;97.70
75022;SHT31;63583;49.976;20.182;2022-11-23T11:47:15;-0.01;97.44
75022;SHT31;63583;49.976;20.182;2022-11-23T11:49:46;-0.01;96.94
75022;SHT31;63583;49.976;20.182;2022-11-23T11:52:16;0.02;97.40
75022;SHT31;63583;49.976;20.182;2022-11-23T11:55:04;0.02;97.11
75022;SHT31;63583;49.976;20.182;2022-11-23T11:57:44;0.08;97.09
75022;SHT31;63583;49.976;20.182;2022-11-23T12:00:17;0.05;97.09
75022;SHT31;63583;49.976;20.182;2022-11-23T12:05:51;-0.02;97.59
75022;SHT31;63583;49.976;20.182;2022-11-23T12:08:39;0.14;97.43
75022;SHT31;63583;49.976;20.182;2022-11-23T12:11:10;0.18;97.47
75022;SHT31;63583;49.976;20.182;2022-11-23T12:13:40;0.22;96.93
75022;SHT31;63583;49.976;20.182;2022-11-23T12:19:12;0.15;96.99
75022;SHT31;63583;49.976;20.182;2022-11-23T12:21:57;0.15;96.55
75022;SHT31;63583;49.976;20.182;2022-11-23T12:40:28;0.24;96.67
75022;SHT31;63583;49.976;20.182;2022-11-23T12:43:11;0.19;96.69
75022;SHT31;63583;49.976;20.182;2022-11-23T12:51:44;0.36;96.99
75022;SHT31;63583;49.976;20.182;2022-11-23T13:00:06;0.41;97.24
75022;SHT31;63583;49.976;20.182;2022-11-23T13:11:06;0.30;96.94
75022;SHT31;63583;49.976;20.182;2022-11-23T13:21:47;0.38;96.62
75022;SHT31;63583;49.976;20.182;2022-11-23T13:24:33;0.41;96.86
75022;SHT31;63583;49.976;20.182;2022-11-23T13:32:55;0.36;96.98
75022;SHT31;63583;49.976;20.182;2022-11-23T13:43:03;0.33;97.20
75022;SHT31;63583;49.976;20.182;2022-11-23T13:45:32;0.28;96.94
75022;SHT31;63583;49.976;20.182;2022-11-23T13:50:38;0.29;97.11
75022;SHT31;63583;49.976;20.182;2022-11-23T13:53:21;0.26;97.08
75022;SHT31;63583;49.976;20.182;2022-11-23T13:55:49;0.18;97.15
75022;SHT31;63583;49.976;20.182;2022-11-23T14:03:53;0.16;97.71
75022;SHT31;63583;49.976;20.182;2022-11-23T14:06:43;0.12;97.65
75022;SHT31;63583;49.976;20.182;2022-11-23T14:14:50;0.12;97.88
75022;SHT31;63583;49.976;20.182;2022-11-23T14:17:23;0.09;97.75
75022;SHT31;63583;49.976;20.182;2022-11-23T14:27:32;0.11;97.79
75022;SHT31;63583;49.976;20.182;2022-11-23T14:30:04;0.09;97.79
75022;SHT31;63583;49.976;20.182;2022-11-23T14:35:29;0.05;97.74
75022;SHT31;63583;49.976;20.182;2022-11-23T14:38:02;0.02;98.03
75022;SHT31;63583;49.976;20.182;2022-11-23T14:43:20;0.04;97.98
75022;SHT31;63583;49.976;20.182;2022-11-23T14:45:46;0.04;97.69
75022;SHT31;63583;49.976;20.182;2022-11-23T14:48:25;0.08;97.60
75022;SHT31;63583;49.976;20.182;2022-11-23T14:50:57;-0.01;97.58
75022;SHT31;63583;49.976;20.182;2022-11-23T14:53:32;-0.05;98.13
75022;SHT31;63583;49.976;20.182;2022-11-23T14:55:59;0.01;97.77
75022;SHT31;63583;49.976;20.182;2022-11-23T14:58:27;0.02;97.90
75022;SHT31;63583;49.976;20.182;2022-11-23T15:01:02;0.05;97.73
75022;SHT31;63583;49.976;20.182;2022-11-23T15:03:30;0.15;97.12
75022;SHT31;63583;49.976;20.182;2022-11-23T15:06:06;0.08;97.03
75022;SHT31;63583;49.976;20.182;2022-11-23T15:08:42;0.04;97.10
75022;SHT31;63583;49.976;20.182;2022-11-23T15:11:13;0.01;97.32
75022;SHT31;63583;49.976;20.182;2022-11-23T15:13:49;0.05;97.87
75022;SHT31;63583;49.976;20.182;2022-11-23T15:16:16;0.01;97.83
75022;SHT31;63583;49.976;20.182;2022-11-23T15:18:43;-0.01;98.30
75022;SHT31;63583;49.976;20.182;2022-11-23T15:23:39;0.04;98.17
75022;SHT31;63583;49.976;20.182;2022-11-23T15:26:12;0.07;97.77
75022;SHT31;63583;49.976;20.182;2022-11-23T15:28:38;0.09;97.58
75022;SHT31;63583;49.976;20.182;2022-11-23T15:33:49;0.05;97.83
75022;SHT31;63583;49.976;20.182;2022-11-23T15:36:20;0.07;97.80
75022;SHT31;63583;49.976;20.182;2022-11-23T15:38:48;0.04;97.95
75022;SHT31;63583;49.976;20.182;2022-11-23T15:41:13;0.02;97.87
75022;SHT31;63583;49.976;20.182;2022-11-23T15:43:50;0.04;97.78
75022;SHT31;63583;49.976;20.182;2022-11-23T15:46:38;-0.05;97.70
75022;SHT31;63583;49.976;20.182;2022-11-23T15:49:04;0.05;97.51
75022;SHT31;63583;49.976;20.182;2022-11-23T15:51:35;0.08;97.04
75022;SHT31;63583;49.976;20.182;2022-11-23T15:54:03;0.09;97.25
75022;SHT31;63583;49.976;20.182;2022-11-23T15:56:33;0.01;96.96
75022;SHT31;63583;49.976;20.182;2022-11-23T15:59:13;-0.02;97.11
75022;SHT31;63583;49.976;20.182;2022-11-23T16:01:42;0.04;97.20
75022;SHT31;63583;49.976;20.182;2022-11-23T16:04:26;0.08;97.22
75022;SHT31;63583;49.976;20.182;2022-11-23T16:06:52;0.08;97.26
75022;SHT31;63583;49.976;20.182;2022-11-23T16:09:38;0.09;96.95
75022;SHT31;63583;49.976;20.182;2022-11-23T16:12:19;0.09;96.74
75022;SHT31;63583;49.976;20.182;2022-11-23T16:14:45;0.08;96.64
75022;SHT31;63583;49.976;20.182;2022-11-23T16:19:46;0.09;96.49
75022;SHT31;63583;49.976;20.182;2022-11-23T16:22:19;0.04;96.57
75022;SHT31;63583;49.976;20.182;2022-11-23T16:24:49;0.04;96.75
75022;SHT31;63583;49.976;20.182;2022-11-23T16:27:21;0.09;96.44
75022;SHT31;63583;49.976;20.182;2022-11-23T16:29:49;0.05;96.51
75022;SHT31;63583;49.976;20.182;2022-11-23T16:32:29;0.11;96.76
75022;SHT31;63583;49.976;20.182;2022-11-23T16:35:14;0.11;96.56
75022;SHT31;63583;49.976;20.182;2022-11-23T16:37:41;0.11;95.92
75022;SHT31;63583;49.976;20.182;2022-11-23T16:40:07;0.07;96.39
75022;SHT31;63583;49.976;20.182;2022-11-23T16:46:45;-0.02;96.11
75022;SHT31;63583;49.976;20.182;2022-11-23T16:50:16;0.02;96.48
75022;SHT31;63583;49.976;20.182;2022-11-23T16:53:34;0.07;96.40
75022;SHT31;63583;49.976;20.182;2022-11-23T16:56:55;0.02;96.31
75022;SHT31;63583;49.976;20.182;2022-11-23T17:00:31;0.04;96.27
75022;SHT31;63583;49.976;20.182;2022-11-23T17:07:18;0.02;96.15
75022;SHT31;63583;49.976;20.182;2022-11-23T17:11:36;-0.05;96.28
75022;SHT31;63583;49.976;20.182;2022-11-23T17:15:21;-0.01;96.60
75022;SHT31;63583;49.976;20.182;2022-11-23T17:18:52;-0.06;96.10
75022;SHT31;63583;49.976;20.182;2022-11-23T17:22:35;-0.05;96.49
75022;SHT31;63583;49.976;20.182;2022-11-23T17:26:46;-0.02;96.67
75022;SHT31;63583;49.976;20.182;2022-11-23T17:29:43;-0.01;96.61
75022;SHT31;63583;49.976;20.182;2022-11-23T17:33:10;0.07;96.39
75022;SHT31;63583;49.976;20.182;2022-11-23T17:36:34;0.09;96.18
75022;SHT31;63583;49.976;20.182;2022-11-23T17:40:38;0.05;96.33
75022;SHT31;63583;49.976;20.182;2022-11-23T17:43:24;0.11;96.18
75022;SHT31;63583;49.976;20.182;2022-11-23T17:46:54;0.07;96.03
75022;SHT31;63583;49.976;20.182;2022-11-23T17:50:01;0.09;95.87
75022;SHT31;63583;49.976;20.182;2022-11-23T17:52:28;0.15;96.00
75022;SHT31;63583;49.976;20.182;2022-11-23T17:54:57;0.15;96.28
75022;SHT31;63583;49.976;20.182;2022-11-23T17:57:42;0.14;96.05
75022;SHT31;63583;49.976;20.182;2022-11-23T18:00:27;0.12;96.57
75022;SHT31;63583;49.976;20.182;2022-11-23T18:03:08;0.12;96.64